sensor_id;sensor_type;location;lat;lon;timestamp;P1;durP1;ratioP1;P2;durP2;ratioP2
6342;SDS011;3204;42.698;23.298;2022-11-15T00:01:38;124.50;;;58.77;;
6342;SDS011;3204;42.698;23.298;2022-11-15T00:04:03;128.70;;;59.77;;
6342;SDS011;3204;42.698;23.298;2022-11-15T00:06:30;109.30;;;55.80;;
6342;SDS011;3204;42.698;23.298;2022-11-15T00:08:57;122.77;;;58.43;;
6342;SDS011;3204;42.698;23.298;2022-11-15T00:11:23;127.40;;;58.53;;
6342;SDS011;3204;42.698;23.298;2022-11-15T00:13:49;134.77;;;64.33;;
6342;SDS011;3204;42.698;23.298;2022-11-15T00:16:15;124.27;;;58.80;;
6342;SDS011;3204;42.698;23.298;2022-11-15T00:18:41;129.87;;;58.67;;
6342;SDS011;3204;42.698;23.298;2022-11-15T00:21:09;134.93;;;64.13;;
6342;SDS011;3204;42.698;23.298;2022-11-15T00:23:36;133.57;;;58.93;;
6342;SDS011;3204;42.698;23.298;2022-11-15T00:26:02;130.03;;;58.47;;
6342;SDS011;3204;42.698;23.298;2022-11-15T00:28:28;133.37;;;62.67;;
6342;SDS011;3204;42.698;23.298;2022-11-15T00:30:59;136.53;;;63.60;;
6342;SDS011;3204;42.698;23.298;2022-11-15T00:33:26;123.87;;;60.97;;
6342;SDS011;3204;42.698;23.298;2022-11-15T00:35:51;125.90;;;58.87;;
6342;SDS011;3204;42.698;23.298;2022-11-15T00:38:17;161.30;;;70.23;;
6342;SDS011;3204;42.698;23.298;2022-11-15T00:40:42;160.20;;;71.77;;
6342;SDS011;3204;42.698;23.298;2022-11-15T00:43:08;137.90;;;62.87;;
6342;SDS011;3204;42.698;23.298;2022-11-15T00:45:33;121.80;;;56.77;;
6342;SDS011;3204;42.698;23.298;2022-11-15T00:47:59;116.67;;;56.43;;
6342;SDS011;3204;42.698;23.298;2022-11-15T00:50:24;127.03;;;57.03;;
6342;SDS011;3204;42.698;23.298;2022-11-15T00:52:50;115.33;;;56.00;;
6342;SDS011;3204;42.698;23.298;2022-11-15T00:55:16;135.23;;;62.10;;
6342;SDS011;3204;42.698;23.298;2022-11-15T00:57:42;130.90;;;60.57;;
6342;SDS011;3204;42.698;23.298;2022-11-15T01:00:08;128.00;;;60.03;;
6342;SDS011;3204;42.698;23.298;2022-11-15T01:02:35;137.57;;;65.43;;
6342;SDS011;3204;42.698;23.298;2022-11-15T01:05:00;123.90;;;59.73;;
6342;SDS011;3204;42.698;23.298;2022-11-15T01:07:26;126.17;;;62.67;;
6342;SDS011;3204;42.698;23.298;2022-11-15T01:09:51;149.10;;;72.60;;
6342;SDS011;3204;42.698;23.298;2022-11-15T01:12:17;161.60;;;77.60;;
6342;SDS011;3204;42.698;23.298;2022-11-15T01:14:42;148.33;;;72.03;;
6342;SDS011;3204;42.698;23.298;2022-11-15T01:17:08;142.80;;;70.03;;
6342;SDS011;3204;42.698;23.298;2022-11-15T01:19:33;114.50;;;56.27;;
6342;SDS011;3204;42.698;23.298;2022-11-15T01:21:59;116.23;;;55.53;;
6342;SDS011;3204;42.698;23.298;2022-11-15T01:24:24;120.30;;;58.00;;
6342;SDS011;3204;42.698;23.298;2022-11-15T01:26:50;113.07;;;55.13;;
6342;SDS011;3204;42.698;23.298;2022-11-15T01:29:15;112.97;;;53.37;;
6342;SDS011;3204;42.698;23.298;2022-11-15T01:31:41;117.80;;;57.40;;
6342;SDS011;3204;42.698;23.298;2022-11-15T01:34:06;110.20;;;56.23;;
6342;SDS011;3204;42.698;23.298;2022-11-15T01:36:32;107.87;;;56.30;;
6342;SDS011;3204;42.698;23.298;2022-11-15T01:38:58;104.63;;;52.93;;
6342;SDS011;3204;42.698;23.298;2022-11-15T01:41:26;105.07;;;53.30;;
6342;SDS011;3204;42.698;23.298;2022-11-15T01:43:57;111.13;;;54.70;;
6342;SDS011;3204;42.698;23.298;2022-11-15T01:46:57;115.10;;;58.00;;
6342;SDS011;3204;42.698;23.298;2022-11-15T01:49:26;119.87;;;59.93;;
6342;SDS011;3204;42.698;23.298;2022-11-15T01:51:54;122.93;;;61.10;;
6342;SDS011;3204;42.698;23.298;2022-11-15T01:54:21;129.20;;;63.77;;
6342;SDS011;3204;42.698;23.298;2022-11-15T01:56:50;131.00;;;63.43;;
6342;SDS011;3204;42.698;23.298;2022-11-15T01:59:20;148.33;;;71.60;;
6342;SDS011;3204;42.698;23.298;2022-11-15T02:01:46;145.23;;;72.83;;
6342;SDS011;3204;42.698;23.298;2022-11-15T02:07:11;172.10;;;82.63;;
6342;SDS011;3204;42.698;23.298;2022-11-15T02:09:40;160.87;;;80.37;;
6342;SDS011;3204;42.698;23.298;2022-11-15T02:12:07;166.90;;;87.27;;
6342;SDS011;3204;42.698;23.298;2022-11-15T02:14:38;166.47;;;85.87;;
6342;SDS011;3204;42.698;23.298;2022-11-15T02:25:41;149.70;;;76.80;;
6342;SDS011;3204;42.698;23.298;2022-11-15T02:42:09;139.73;;;70.03;;
6342;SDS011;3204;42.698;23.298;2022-11-15T02:44:57;151.90;;;78.47;;
6342;SDS011;3204;42.698;23.298;2022-11-15T02:47:27;147.00;;;72.27;;
6342;SDS011;3204;42.698;23.298;2022-11-15T02:50:01;150.60;;;71.27;;
6342;SDS011;3204;42.698;23.298;2022-11-15T02:52:31;177.30;;;82.53;;
6342;SDS011;3204;42.698;23.298;2022-11-15T02:54:58;167.77;;;77.50;;
6342;SDS011;3204;42.698;23.298;2022-11-15T02:57:40;181.57;;;82.97;;
6342;SDS011;3204;42.698;23.298;2022-11-15T03:00:21;190.50;;;86.57;;
6342;SDS011;3204;42.698;23.298;2022-11-15T03:08:10;176.37;;;76.27;;
6342;SDS011;3204;42.698;23.298;2022-11-15T03:19:12;155.37;;;69.00;;
6342;SDS011;3204;42.698;23.298;2022-11-15T03:21:42;152.60;;;71.10;;
6342;SDS011;3204;42.698;23.298;2022-11-15T03:24:09;151.43;;;66.33;;
6342;SDS011;3204;42.698;23.298;2022-11-15T03:26:38;151.50;;;67.70;;
6342;SDS011;3204;42.698;23.298;2022-11-15T03:29:13;143.20;;;61.97;;
6342;SDS011;3204;42.698;23.298;2022-11-15T03:31:44;152.57;;;58.70;;
6342;SDS011;3204;42.698;23.298;2022-11-15T03:36:57;137.60;;;59.03;;
6342;SDS011;3204;42.698;23.298;2022-11-15T03:39:22;156.57;;;61.73;;
6342;SDS011;3204;42.698;23.298;2022-11-15T03:45:19;160.07;;;60.60;;
6342;SDS011;3204;42.698;23.298;2022-11-15T03:47:49;123.57;;;49.67;;
6342;SDS011;3204;42.698;23.298;2022-11-15T03:50:20;136.43;;;52.90;;
6342;SDS011;3204;42.698;23.298;2022-11-15T03:52:48;118.80;;;49.60;;
6342;SDS011;3204;42.698;23.298;2022-11-15T03:55:18;107.30;;;46.73;;
6342;SDS011;3204;42.698;23.298;2022-11-15T03:57:45;85.87;;;39.57;;
6342;SDS011;3204;42.698;23.298;2022-11-15T04:00:13;83.57;;;38.97;;
6342;SDS011;3204;42.698;23.298;2022-11-15T04:02:39;97.10;;;41.70;;
6342;SDS011;3204;42.698;23.298;2022-11-15T04:05:04;106.47;;;43.83;;
6342;SDS011;3204;42.698;23.298;2022-11-15T04:07:30;102.33;;;44.83;;
6342;SDS011;3204;42.698;23.298;2022-11-15T04:09:56;106.83;;;45.17;;
6342;SDS011;3204;42.698;23.298;2022-11-15T04:12:29;112.63;;;45.47;;
6342;SDS011;3204;42.698;23.298;2022-11-15T04:15:15;112.00;;;46.97;;
6342;SDS011;3204;42.698;23.298;2022-11-15T04:17:46;107.70;;;46.33;;
6342;SDS011;3204;42.698;23.298;2022-11-15T04:23:06;122.07;;;47.17;;
6342;SDS011;3204;42.698;23.298;2022-11-15T04:25:54;117.07;;;45.37;;
6342;SDS011;3204;42.698;23.298;2022-11-15T04:28:20;114.13;;;45.23;;
6342;SDS011;3204;42.698;23.298;2022-11-15T04:30:46;106.47;;;45.60;;
6342;SDS011;3204;42.698;23.298;2022-11-15T04:33:12;116.10;;;46.77;;
6342;SDS011;3204;42.698;23.298;2022-11-15T04:35:38;105.93;;;44.53;;
6342;SDS011;3204;42.698;23.298;2022-11-15T04:38:04;104.97;;;44.27;;
6342;SDS011;3204;42.698;23.298;2022-11-15T04:40:31;107.53;;;44.60;;
6342;SDS011;3204;42.698;23.298;2022-11-15T04:42:57;109.90;;;44.53;;
6342;SDS011;3204;42.698;23.298;2022-11-15T04:45:22;117.00;;;44.87;;
6342;SDS011;3204;42.698;23.298;2022-11-15T04:47:48;125.27;;;44.73;;
6342;SDS011;3204;42.698;23.298;2022-11-15T04:50:14;109.23;;;42.10;;
6342;SDS011;3204;42.698;23.298;2022-11-15T04:52:41;106.90;;;41.77;;
6342;SDS011;3204;42.698;23.298;2022-11-15T04:55:07;111.87;;;42.97;;
6342;SDS011;3204;42.698;23.298;2022-11-15T04:57:36;118.67;;;43.60;;
6342;SDS011;3204;42.698;23.298;2022-11-15T05:00:06;104.43;;;41.90;;
6342;SDS011;3204;42.698;23.298;2022-11-15T05:02:33;111.10;;;43.47;;
6342;SDS011;3204;42.698;23.298;2022-11-15T05:05:17;99.47;;;43.00;;
6342;SDS011;3204;42.698;23.298;2022-11-15T05:07:42;99.70;;;39.70;;
6342;SDS011;3204;42.698;23.298;2022-11-15T05:10:08;112.13;;;42.67;;
6342;SDS011;3204;42.698;23.298;2022-11-15T05:12:34;114.37;;;42.83;;
6342;SDS011;3204;42.698;23.298;2022-11-15T05:15:00;128.67;;;44.43;;
6342;SDS011;3204;42.698;23.298;2022-11-15T05:17:25;123.30;;;43.20;;
6342;SDS011;3204;42.698;23.298;2022-11-15T05:19:51;115.87;;;42.90;;
6342;SDS011;3204;42.698;23.298;2022-11-15T05:22:17;102.67;;;40.07;;
6342;SDS011;3204;42.698;23.298;2022-11-15T05:24:43;117.80;;;40.77;;
6342;SDS011;3204;42.698;23.298;2022-11-15T05:27:09;118.47;;;39.77;;
6342;SDS011;3204;42.698;23.298;2022-11-15T05:29:35;111.33;;;38.70;;
6342;SDS011;3204;42.698;23.298;2022-11-15T05:32:00;113.00;;;40.17;;
6342;SDS011;3204;42.698;23.298;2022-11-15T05:34:26;118.93;;;41.00;;
6342;SDS011;3204;42.698;23.298;2022-11-15T05:36:52;114.30;;;39.70;;
6342;SDS011;3204;42.698;23.298;2022-11-15T05:39:17;127.13;;;43.57;;
6342;SDS011;3204;42.698;23.298;2022-11-15T05:41:50;125.00;;;39.53;;
6342;SDS011;3204;42.698;23.298;2022-11-15T05:44:22;117.33;;;39.60;;
6342;SDS011;3204;42.698;23.298;2022-11-15T05:46:49;129.57;;;41.80;;
6342;SDS011;3204;42.698;23.298;2022-11-15T05:49:19;147.93;;;47.77;;
6342;SDS011;3204;42.698;23.298;2022-11-15T05:51:49;158.03;;;49.50;;
6342;SDS011;3204;42.698;23.298;2022-11-15T05:54:16;139.90;;;47.80;;
6342;SDS011;3204;42.698;23.298;2022-11-15T05:56:42;153.13;;;50.57;;
6342;SDS011;3204;42.698;23.298;2022-11-15T05:59:08;154.30;;;49.90;;
6342;SDS011;3204;42.698;23.298;2022-11-15T06:01:35;158.13;;;53.37;;
6342;SDS011;3204;42.698;23.298;2022-11-15T06:04:01;164.67;;;52.83;;
6342;SDS011;3204;42.698;23.298;2022-11-15T06:06:29;162.60;;;52.60;;
6342;SDS011;3204;42.698;23.298;2022-11-15T06:08:55;163.83;;;54.40;;
6342;SDS011;3204;42.698;23.298;2022-11-15T06:11:21;154.83;;;52.97;;
6342;SDS011;3204;42.698;23.298;2022-11-15T06:13:46;162.27;;;53.37;;
6342;SDS011;3204;42.698;23.298;2022-11-15T06:16:12;181.27;;;56.37;;
6342;SDS011;3204;42.698;23.298;2022-11-15T06:18:37;165.70;;;54.20;;
6342;SDS011;3204;42.698;23.298;2022-11-15T06:21:03;158.50;;;53.90;;
6342;SDS011;3204;42.698;23.298;2022-11-15T06:23:31;170.10;;;55.83;;
6342;SDS011;3204;42.698;23.298;2022-11-15T06:25:58;171.20;;;56.23;;
6342;SDS011;3204;42.698;23.298;2022-11-15T06:28:24;172.83;;;55.20;;
6342;SDS011;3204;42.698;23.298;2022-11-15T06:30:52;166.40;;;52.93;;
6342;SDS011;3204;42.698;23.298;2022-11-15T06:33:18;186.00;;;55.67;;
6342;SDS011;3204;42.698;23.298;2022-11-15T06:35:44;169.43;;;55.27;;
6342;SDS011;3204;42.698;23.298;2022-11-15T06:38:09;166.47;;;52.93;;
6342;SDS011;3204;42.698;23.298;2022-11-15T06:40:37;154.17;;;54.83;;
6342;SDS011;3204;42.698;23.298;2022-11-15T06:43:04;159.33;;;54.30;;
6342;SDS011;3204;42.698;23.298;2022-11-15T06:45:31;150.77;;;53.20;;
6342;SDS011;3204;42.698;23.298;2022-11-15T06:47:57;152.10;;;53.80;;
6342;SDS011;3204;42.698;23.298;2022-11-15T06:50:22;157.80;;;50.93;;
6342;SDS011;3204;42.698;23.298;2022-11-15T06:52:48;163.83;;;53.77;;
6342;SDS011;3204;42.698;23.298;2022-11-15T06:55:14;151.53;;;51.47;;
6342;SDS011;3204;42.698;23.298;2022-11-15T06:57:49;151.13;;;54.10;;
6342;SDS011;3204;42.698;23.298;2022-11-15T07:00:16;151.13;;;51.83;;
6342;SDS011;3204;42.698;23.298;2022-11-15T07:02:46;134.13;;;49.63;;
6342;SDS011;3204;42.698;23.298;2022-11-15T07:05:12;132.93;;;49.67;;
6342;SDS011;3204;42.698;23.298;2022-11-15T07:07:38;143.07;;;51.77;;
6342;SDS011;3204;42.698;23.298;2022-11-15T07:10:04;142.63;;;49.43;;
6342;SDS011;3204;42.698;23.298;2022-11-15T07:12:30;135.20;;;51.17;;
6342;SDS011;3204;42.698;23.298;2022-11-15T07:14:56;126.23;;;49.23;;
6342;SDS011;3204;42.698;23.298;2022-11-15T07:17:21;138.13;;;52.23;;
6342;SDS011;3204;42.698;23.298;2022-11-15T07:19:46;125.90;;;50.53;;
6342;SDS011;3204;42.698;23.298;2022-11-15T07:22:12;127.53;;;47.20;;
6342;SDS011;3204;42.698;23.298;2022-11-15T07:24:37;109.23;;;41.27;;
6342;SDS011;3204;42.698;23.298;2022-11-15T07:27:03;120.20;;;45.47;;
6342;SDS011;3204;42.698;23.298;2022-11-15T07:29:28;118.00;;;43.73;;
6342;SDS011;3204;42.698;23.298;2022-11-15T07:31:54;118.60;;;43.57;;
6342;SDS011;3204;42.698;23.298;2022-11-15T07:34:20;99.70;;;41.50;;
6342;SDS011;3204;42.698;23.298;2022-11-15T07:36:45;110.20;;;42.93;;
6342;SDS011;3204;42.698;23.298;2022-11-15T07:39:11;105.27;;;44.33;;
6342;SDS011;3204;42.698;23.298;2022-11-15T07:41:37;109.90;;;43.03;;
6342;SDS011;3204;42.698;23.298;2022-11-15T07:44:03;94.83;;;39.83;;
6342;SDS011;3204;42.698;23.298;2022-11-15T07:46:29;100.50;;;41.03;;
6342;SDS011;3204;42.698;23.298;2022-11-15T07:48:56;105.87;;;41.97;;
6342;SDS011;3204;42.698;23.298;2022-11-15T07:51:22;109.53;;;42.90;;
6342;SDS011;3204;42.698;23.298;2022-11-15T07:53:47;106.27;;;42.83;;
6342;SDS011;3204;42.698;23.298;2022-11-15T07:56:13;106.57;;;41.83;;
6342;SDS011;3204;42.698;23.298;2022-11-15T07:58:38;101.83;;;41.00;;
6342;SDS011;3204;42.698;23.298;2022-11-15T08:01:05;103.67;;;41.07;;
6342;SDS011;3204;42.698;23.298;2022-11-15T08:03:31;98.83;;;41.00;;
6342;SDS011;3204;42.698;23.298;2022-11-15T08:05:57;101.20;;;40.80;;
6342;SDS011;3204;42.698;23.298;2022-11-15T08:08:23;94.27;;;39.40;;
6342;SDS011;3204;42.698;23.298;2022-11-15T08:10:49;93.87;;;40.07;;
6342;SDS011;3204;42.698;23.298;2022-11-15T08:13:15;101.57;;;42.57;;
6342;SDS011;3204;42.698;23.298;2022-11-15T08:15:41;105.80;;;43.30;;
6342;SDS011;3204;42.698;23.298;2022-11-15T08:18:14;112.30;;;44.20;;
6342;SDS011;3204;42.698;23.298;2022-11-15T08:20:41;112.27;;;45.70;;
6342;SDS011;3204;42.698;23.298;2022-11-15T08:23:07;131.97;;;49.97;;
6342;SDS011;3204;42.698;23.298;2022-11-15T08:25:35;136.03;;;50.53;;
6342;SDS011;3204;42.698;23.298;2022-11-15T08:28:02;131.17;;;50.20;;
6342;SDS011;3204;42.698;23.298;2022-11-15T08:30:29;123.90;;;51.17;;
6342;SDS011;3204;42.698;23.298;2022-11-15T08:32:56;126.43;;;47.77;;
6342;SDS011;3204;42.698;23.298;2022-11-15T08:35:23;128.23;;;46.73;;
6342;SDS011;3204;42.698;23.298;2022-11-15T08:37:49;125.10;;;49.60;;
6342;SDS011;3204;42.698;23.298;2022-11-15T08:40:14;124.87;;;48.77;;
6342;SDS011;3204;42.698;23.298;2022-11-15T08:42:40;115.63;;;49.50;;
6342;SDS011;3204;42.698;23.298;2022-11-15T08:45:07;112.30;;;47.33;;
6342;SDS011;3204;42.698;23.298;2022-11-15T08:47:33;128.77;;;48.53;;
6342;SDS011;3204;42.698;23.298;2022-11-15T08:49:59;109.90;;;45.57;;
6342;SDS011;3204;42.698;23.298;2022-11-15T08:52:25;110.87;;;47.53;;
6342;SDS011;3204;42.698;23.298;2022-11-15T08:54:50;112.43;;;45.33;;
6342;SDS011;3204;42.698;23.298;2022-11-15T08:57:16;114.53;;;45.53;;
6342;SDS011;3204;42.698;23.298;2022-11-15T08:59:41;112.20;;;45.83;;
6342;SDS011;3204;42.698;23.298;2022-11-15T09:02:10;109.70;;;45.27;;
6342;SDS011;3204;42.698;23.298;2022-11-15T09:04:39;108.70;;;46.10;;
6342;SDS011;3204;42.698;23.298;2022-11-15T09:07:06;116.90;;;45.10;;
6342;SDS011;3204;42.698;23.298;2022-11-15T09:09:31;107.73;;;47.53;;
6342;SDS011;3204;42.698;23.298;2022-11-15T09:11:57;108.93;;;46.50;;
6342;SDS011;3204;42.698;23.298;2022-11-15T09:14:22;98.73;;;44.57;;
6342;SDS011;3204;42.698;23.298;2022-11-15T09:16:48;108.97;;;44.67;;
6342;SDS011;3204;42.698;23.298;2022-11-15T09:19:13;110.00;;;45.20;;
6342;SDS011;3204;42.698;23.298;2022-11-15T09:21:39;115.00;;;45.53;;
6342;SDS011;3204;42.698;23.298;2022-11-15T09:24:05;113.33;;;45.17;;
6342;SDS011;3204;42.698;23.298;2022-11-15T09:26:31;102.43;;;42.77;;
6342;SDS011;3204;42.698;23.298;2022-11-15T09:28:56;94.43;;;41.70;;
6342;SDS011;3204;42.698;23.298;2022-11-15T09:31:22;105.03;;;44.20;;
6342;SDS011;3204;42.698;23.298;2022-11-15T09:33:48;100.30;;;42.70;;
6342;SDS011;3204;42.698;23.298;2022-11-15T09:36:13;101.53;;;43.80;;
6342;SDS011;3204;42.698;23.298;2022-11-15T09:38:39;103.30;;;44.17;;
6342;SDS011;3204;42.698;23.298;2022-11-15T09:49:22;101.53;;;42.90;;
6342;SDS011;3204;42.698;23.298;2022-11-15T09:51:53;110.67;;;45.67;;
6342;SDS011;3204;42.698;23.298;2022-11-15T09:54:33;105.67;;;45.00;;
6342;SDS011;3204;42.698;23.298;2022-11-15T09:57:13;108.90;;;45.83;;
6342;SDS011;3204;42.698;23.298;2022-11-15T10:05:22;105.40;;;43.67;;
6342;SDS011;3204;42.698;23.298;2022-11-15T10:08:02;104.63;;;44.83;;
6342;SDS011;3204;42.698;23.298;2022-11-15T10:10:48;104.47;;;45.27;;
6342;SDS011;3204;42.698;23.298;2022-11-15T10:13:22;100.10;;;46.70;;
6342;SDS011;3204;42.698;23.298;2022-11-15T10:15:50;110.37;;;46.47;;
6342;SDS011;3204;42.698;23.298;2022-11-15T10:21:32;103.60;;;46.53;;
6342;SDS011;3204;42.698;23.298;2022-11-15T10:23:47;104.40;;;45.83;;
6342;SDS011;3204;42.698;23.298;2022-11-15T10:26:14;104.83;;;46.00;;
6342;SDS011;3204;42.698;23.298;2022-11-15T10:28:41;109.27;;;47.77;;
6342;SDS011;3204;42.698;23.298;2022-11-15T10:31:23;99.47;;;43.77;;
6342;SDS011;3204;42.698;23.298;2022-11-15T10:33:51;107.67;;;45.93;;
6342;SDS011;3204;42.698;23.298;2022-11-15T10:36:59;106.37;;;46.10;;
6342;SDS011;3204;42.698;23.298;2022-11-15T10:39:26;103.57;;;46.63;;
6342;SDS011;3204;42.698;23.298;2022-11-15T10:41:53;114.67;;;48.73;;
6342;SDS011;3204;42.698;23.298;2022-11-15T10:49:31;104.37;;;45.93;;
6342;SDS011;3204;42.698;23.298;2022-11-15T10:51:59;110.03;;;48.93;;
6342;SDS011;3204;42.698;23.298;2022-11-15T10:54:47;114.20;;;47.43;;
6342;SDS011;3204;42.698;23.298;2022-11-15T10:57:15;114.60;;;48.83;;
6342;SDS011;3204;42.698;23.298;2022-11-15T11:02:34;117.83;;;50.77;;
6342;SDS011;3204;42.698;23.298;2022-11-15T11:05:39;116.70;;;47.07;;
6342;SDS011;3204;42.698;23.298;2022-11-15T11:10:36;123.43;;;50.60;;
6342;SDS011;3204;42.698;23.298;2022-11-15T11:13:20;129.23;;;51.43;;
6342;SDS011;3204;42.698;23.298;2022-11-15T11:15:50;115.13;;;50.03;;
6342;SDS011;3204;42.698;23.298;2022-11-15T11:18:34;127.70;;;52.33;;
6342;SDS011;3204;42.698;23.298;2022-11-15T11:21:13;126.40;;;52.97;;
6342;SDS011;3204;42.698;23.298;2022-11-15T11:26:42;117.27;;;50.63;;
6342;SDS011;3204;42.698;23.298;2022-11-15T11:35:15;130.50;;;53.40;;
6342;SDS011;3204;42.698;23.298;2022-11-15T11:48:52;127.40;;;54.23;;
6342;SDS011;3204;42.698;23.298;2022-11-15T11:51:25;126.53;;;53.43;;
6342;SDS011;3204;42.698;23.298;2022-11-15T11:53:57;123.53;;;54.83;;
6342;SDS011;3204;42.698;23.298;2022-11-15T11:56:31;126.30;;;55.50;;
6342;SDS011;3204;42.698;23.298;2022-11-15T12:01:41;133.13;;;56.83;;
6342;SDS011;3204;42.698;23.298;2022-11-15T12:09:23;134.63;;;55.40;;
6342;SDS011;3204;42.698;23.298;2022-11-15T12:17:16;130.50;;;55.07;;
6342;SDS011;3204;42.698;23.298;2022-11-15T12:19:45;130.27;;;54.43;;
6342;SDS011;3204;42.698;23.298;2022-11-15T12:22:13;126.00;;;54.20;;
6342;SDS011;3204;42.698;23.298;2022-11-15T12:24:57;124.20;;;53.97;;
6342;SDS011;3204;42.698;23.298;2022-11-15T12:27:32;122.57;;;53.73;;
6342;SDS011;3204;42.698;23.298;2022-11-15T12:30:17;118.60;;;53.30;;
6342;SDS011;3204;42.698;23.298;2022-11-15T12:32:52;120.90;;;53.80;;
6342;SDS011;3204;42.698;23.298;2022-11-15T12:37:53;124.17;;;54.70;;
6342;SDS011;3204;42.698;23.298;2022-11-15T12:40:21;124.17;;;52.40;;
6342;SDS011;3204;42.698;23.298;2022-11-15T12:43:34;109.33;;;52.70;;
6342;SDS011;3204;42.698;23.298;2022-11-15T12:45:43;123.10;;;53.23;;
6342;SDS011;3204;42.698;23.298;2022-11-15T12:51:14;115.07;;;54.57;;
6342;SDS011;3204;42.698;23.298;2022-11-15T12:53:33;125.27;;;54.03;;
6342;SDS011;3204;42.698;23.298;2022-11-15T13:01:06;113.27;;;53.10;;
6342;SDS011;3204;42.698;23.298;2022-11-15T13:03:32;123.50;;;54.40;;
6342;SDS011;3204;42.698;23.298;2022-11-15T13:05:59;122.30;;;53.27;;
6342;SDS011;3204;42.698;23.298;2022-11-15T13:14:34;120.93;;;55.30;;
6342;SDS011;3204;42.698;23.298;2022-11-15T13:33:31;118.60;;;54.17;;
6342;SDS011;3204;42.698;23.298;2022-11-15T13:35:58;112.60;;;52.27;;
6342;SDS011;3204;42.698;23.298;2022-11-15T13:40:54;117.47;;;51.27;;
6342;SDS011;3204;42.698;23.298;2022-11-15T13:45:45;107.43;;;51.33;;
6342;SDS011;3204;42.698;23.298;2022-11-15T13:48:39;114.30;;;53.30;;
6342;SDS011;3204;42.698;23.298;2022-11-15T13:51:26;110.83;;;50.80;;
6342;SDS011;3204;42.698;23.298;2022-11-15T13:54:01;108.43;;;51.80;;
6342;SDS011;3204;42.698;23.298;2022-11-15T13:56:32;102.70;;;49.93;;
6342;SDS011;3204;42.698;23.298;2022-11-15T13:58:59;108.57;;;51.13;;
6342;SDS011;3204;42.698;23.298;2022-11-15T14:01:26;100.10;;;49.67;;
6342;SDS011;3204;42.698;23.298;2022-11-15T14:03:56;105.07;;;50.70;;
6342;SDS011;3204;42.698;23.298;2022-11-15T14:06:24;107.00;;;49.13;;
6342;SDS011;3204;42.698;23.298;2022-11-15T14:11:58;109.83;;;51.13;;
6342;SDS011;3204;42.698;23.298;2022-11-15T14:14:24;122.43;;;53.90;;
6342;SDS011;3204;42.698;23.298;2022-11-15T14:16:55;107.57;;;51.27;;
6342;SDS011;3204;42.698;23.298;2022-11-15T14:24:46;110.30;;;52.47;;
6342;SDS011;3204;42.698;23.298;2022-11-15T14:27:29;107.77;;;49.57;;
6342;SDS011;3204;42.698;23.298;2022-11-15T14:29:54;104.57;;;49.47;;
6342;SDS011;3204;42.698;23.298;2022-11-15T14:32:21;105.43;;;48.53;;
6342;SDS011;3204;42.698;23.298;2022-11-15T14:34:53;109.27;;;49.13;;
6342;SDS011;3204;42.698;23.298;2022-11-15T14:37:30;101.13;;;46.77;;
6342;SDS011;3204;42.698;23.298;2022-11-15T14:39:59;93.63;;;44.43;;
6342;SDS011;3204;42.698;23.298;2022-11-15T14:42:29;97.30;;;45.07;;
6342;SDS011;3204;42.698;23.298;2022-11-15T14:44:54;89.97;;;43.97;;
6342;SDS011;3204;42.698;23.298;2022-11-15T14:47:19;92.80;;;45.27;;
6342;SDS011;3204;42.698;23.298;2022-11-15T14:49:46;101.30;;;45.33;;
6342;SDS011;3204;42.698;23.298;2022-11-15T14:52:22;101.07;;;46.77;;
6342;SDS011;3204;42.698;23.298;2022-11-15T14:54:49;89.03;;;45.90;;
6342;SDS011;3204;42.698;23.298;2022-11-15T14:57:14;103.10;;;46.40;;
6342;SDS011;3204;42.698;23.298;2022-11-15T14:59:40;95.50;;;45.23;;
6342;SDS011;3204;42.698;23.298;2022-11-15T15:02:16;92.07;;;45.47;;
6342;SDS011;3204;42.698;23.298;2022-11-15T15:04:44;94.40;;;44.10;;
6342;SDS011;3204;42.698;23.298;2022-11-15T15:07:09;103.03;;;43.90;;
6342;SDS011;3204;42.698;23.298;2022-11-15T15:09:35;85.50;;;42.77;;
6342;SDS011;3204;42.698;23.298;2022-11-15T15:12:00;81.77;;;41.43;;
6342;SDS011;3204;42.698;23.298;2022-11-15T15:14:26;93.27;;;42.87;;
6342;SDS011;3204;42.698;23.298;2022-11-15T15:16:52;85.83;;;42.43;;
6342;SDS011;3204;42.698;23.298;2022-11-15T15:19:17;97.53;;;43.80;;
6342;SDS011;3204;42.698;23.298;2022-11-15T15:21:42;88.07;;;43.40;;
6342;SDS011;3204;42.698;23.298;2022-11-15T15:24:13;87.73;;;44.23;;
6342;SDS011;3204;42.698;23.298;2022-11-15T15:26:39;85.90;;;43.00;;
6342;SDS011;3204;42.698;23.298;2022-11-15T15:29:05;91.33;;;44.40;;
6342;SDS011;3204;42.698;23.298;2022-11-15T15:31:31;91.40;;;44.20;;
6342;SDS011;3204;42.698;23.298;2022-11-15T15:33:58;89.43;;;45.30;;
6342;SDS011;3204;42.698;23.298;2022-11-15T15:36:23;94.30;;;47.03;;
6342;SDS011;3204;42.698;23.298;2022-11-15T15:38:48;104.30;;;50.43;;
6342;SDS011;3204;42.698;23.298;2022-11-15T15:41:15;106.07;;;49.00;;
6342;SDS011;3204;42.698;23.298;2022-11-15T15:43:41;113.13;;;53.97;;
6342;SDS011;3204;42.698;23.298;2022-11-15T15:46:10;123.23;;;53.67;;
6342;SDS011;3204;42.698;23.298;2022-11-15T15:48:37;102.40;;;48.03;;
6342;SDS011;3204;42.698;23.298;2022-11-15T15:51:04;120.80;;;50.77;;
6342;SDS011;3204;42.698;23.298;2022-11-15T15:53:30;130.40;;;52.37;;
6342;SDS011;3204;42.698;23.298;2022-11-15T15:55:56;117.83;;;51.47;;
6342;SDS011;3204;42.698;23.298;2022-11-15T15:58:22;116.80;;;51.27;;
6342;SDS011;3204;42.698;23.298;2022-11-15T16:00:47;106.73;;;50.23;;
6342;SDS011;3204;42.698;23.298;2022-11-15T16:03:12;106.40;;;50.10;;
6342;SDS011;3204;42.698;23.298;2022-11-15T16:05:38;117.50;;;52.70;;
6342;SDS011;3204;42.698;23.298;2022-11-15T16:08:04;107.07;;;51.30;;
6342;SDS011;3204;42.698;23.298;2022-11-15T16:10:32;110.47;;;51.50;;
6342;SDS011;3204;42.698;23.298;2022-11-15T16:13:02;107.63;;;49.93;;
6342;SDS011;3204;42.698;23.298;2022-11-15T16:15:29;110.77;;;49.03;;
6342;SDS011;3204;42.698;23.298;2022-11-15T16:17:57;105.40;;;49.03;;
6342;SDS011;3204;42.698;23.298;2022-11-15T16:20:35;110.07;;;50.10;;
6342;SDS011;3204;42.698;23.298;2022-11-15T16:23:10;120.30;;;52.20;;
6342;SDS011;3204;42.698;23.298;2022-11-15T16:28:20;115.90;;;54.40;;
6342;SDS011;3204;42.698;23.298;2022-11-15T16:30:46;119.80;;;55.43;;
6342;SDS011;3204;42.698;23.298;2022-11-15T16:33:12;117.30;;;54.90;;
6342;SDS011;3204;42.698;23.298;2022-11-15T16:35:38;118.77;;;55.97;;
6342;SDS011;3204;42.698;23.298;2022-11-15T16:38:04;130.87;;;56.50;;
6342;SDS011;3204;42.698;23.298;2022-11-15T16:40:30;133.70;;;59.63;;
6342;SDS011;3204;42.698;23.298;2022-11-15T16:42:57;132.67;;;61.03;;
6342;SDS011;3204;42.698;23.298;2022-11-15T16:45:24;141.03;;;61.50;;
6342;SDS011;3204;42.698;23.298;2022-11-15T16:47:50;128.23;;;61.00;;
6342;SDS011;3204;42.698;23.298;2022-11-15T16:50:26;132.17;;;61.17;;
6342;SDS011;3204;42.698;23.298;2022-11-15T16:52:59;165.87;;;70.67;;
6342;SDS011;3204;42.698;23.298;2022-11-15T16:55:26;209.97;;;79.90;;
6342;SDS011;3204;42.698;23.298;2022-11-15T16:57:55;496.07;;;153.73;;
6342;SDS011;3204;42.698;23.298;2022-11-15T17:00:25;212.43;;;77.93;;
6342;SDS011;3204;42.698;23.298;2022-11-15T17:02:51;317.80;;;99.53;;
6342;SDS011;3204;42.698;23.298;2022-11-15T17:05:18;400.90;;;119.37;;
6342;SDS011;3204;42.698;23.298;2022-11-15T17:07:46;371.87;;;111.80;;
6342;SDS011;3204;42.698;23.298;2022-11-15T17:10:14;254.47;;;90.70;;